»·PEaware :: N3206 KPHX-KBUR

N3206 :: KPHX-KBUR

FLIGHT INFORMATION

Flight Status: Arrived
Operator: Privately registered:
United States
More flights under this callsign
Pilot: David I. (28153)
Aircraft: CESSNA 550 CITATION 2/S2/BRAVO
(C550)
More flights by this aircraft type
Origin: KPHX Phoenix Sky Harbor Intl
United States
Destination: KBUR Bob Hope-Burbank
United States
More flights between these airports :: More routes between these airports
Route: +KEENS2 HRRBR PHRED THRNE3
File this flight plan on PilotEdge
Remarks:
Altitude:
(Current/Filed)
28,000ft
Speed:
(Current/Filed)
300kts
Departed: 27-Feb-20 05:10 PM
Arrived: 27-Feb-20 06:32 PM
Distance/Time
Traveled:
320nm/1:22
Distance/Time
To Go:
Arrived

Flight Plot

Page will automatically refresh every two minutes.

Flight plan parsing failed; only flown route is shown


Map Options




Map Legend


Flown Route
Filed Route
Departure Airport
Arrival Airport
Navaid (VOR, NDB)
Fix

Horizontal Profiles

Position Reports

Time Latitude Longitude Heading Altitude Ground
Speed
27-Feb-20 16:48 33.425708 -112.020083 275 1114ft 0kts
27-Feb-20 16:49 33.425708 -112.020083 275 1114ft 0kts
27-Feb-20 16:50 33.425708 -112.020083 275 1114ft 0kts
27-Feb-20 16:51 33.425708 -112.020083 275 1114ft 0kts
27-Feb-20 16:52 33.425708 -112.020083 275 1114ft 0kts
27-Feb-20 16:52 33.425708 -112.020083 275 1114ft 0kts
27-Feb-20 16:54 33.425708 -112.020083 275 1114ft 0kts
27-Feb-20 16:55 33.425708 -112.020083 275 1114ft 0kts
27-Feb-20 16:55 33.425708 -112.020083 275 1114ft 0kts
27-Feb-20 16:57 33.425708 -112.020083 275 1114ft 0kts
27-Feb-20 16:57 33.425708 -112.020083 275 1114ft 0kts
27-Feb-20 16:58 33.425708 -112.020083 275 1114ft 0kts
27-Feb-20 17:00 33.425708 -112.020083 275 1114ft 0kts
27-Feb-20 17:00 33.425708 -112.020083 275 1114ft 0kts
27-Feb-20 17:01 33.425708 -112.020083 275 1114ft 0kts
27-Feb-20 17:02 33.425708 -112.020083 275 1114ft 0kts
27-Feb-20 17:03 33.425787 -112.020488 290 1114ft 4kts
27-Feb-20 17:04 33.426182 -112.021119 349 1114ft 4kts
27-Feb-20 17:05 33.427761 -112.021697 270 1114ft 3kts
27-Feb-20 17:06 33.427762 -112.024727 270 1114ft 12kts
27-Feb-20 17:07 33.427978 -112.026902 333 1111ft 0kts
27-Feb-20 17:08 33.428462 -112.026967 1 1111ft 7kts
27-Feb-20 17:09 33.428877 -112.021439 90 1114ft 99kts
27-Feb-20 17:10 33.430514 -111.971797 86 4078ft 167kts
27-Feb-20 17:11 33.433568 -111.913225 77 7309ft 192kts
27-Feb-20 17:12 33.413301 -111.854116 140 9793ft 238kts
27-Feb-20 17:13 33.355871 -111.878877 250 11770ft 260kts
27-Feb-20 17:14 33.359207 -111.963967 280 13774ft 258kts
27-Feb-20 17:15 33.369015 -112.048743 286 15780ft 257kts
27-Feb-20 17:16 33.381418 -112.131991 288 17793ft 251kts
27-Feb-20 17:17 33.393294 -112.212156 289 19802ft 239kts
27-Feb-20 17:18 33.404762 -112.289499 290 21524ft 240kts
27-Feb-20 17:19 33.416353 -112.368490 290 23037ft 239kts
27-Feb-20 17:20 33.428110 -112.445515 287 24514ft 234kts
27-Feb-20 17:21 33.438454 -112.519941 289 25872ft 225kts
27-Feb-20 17:22 33.448975 -112.594200 283 26844ft 231kts
27-Feb-20 17:23 33.450914 -112.670716 280 27829ft 227kts
27-Feb-20 17:24 33.452177 -112.747764 279 28233ft 242kts
27-Feb-20 17:25 33.458628 -112.829499 287 28232ft 250kts
27-Feb-20 17:26 33.473797 -112.911568 286 28230ft 256kts
27-Feb-20 17:27 33.489223 -112.994431 285 28228ft 253kts
27-Feb-20 17:28 33.504493 -113.076793 284 28228ft 253kts
27-Feb-20 17:29 33.518552 -113.152975 284 28226ft 253kts
27-Feb-20 17:30 33.533654 -113.234843 284 28225ft 253kts
27-Feb-20 17:31 33.548808 -113.317288 284 28224ft 253kts
27-Feb-20 17:32 33.563860 -113.399482 284 28223ft 252kts
27-Feb-20 17:33 33.578829 -113.481631 284 28222ft 252kts
27-Feb-20 17:34 33.594032 -113.563651 284 28219ft 252kts
27-Feb-20 17:35 33.609334 -113.645857 284 28215ft 252kts
27-Feb-20 17:36 33.624570 -113.727893 284 28223ft 253kts
27-Feb-20 17:37 33.639890 -113.810693 284 28227ft 254kts
27-Feb-20 17:38 33.648755 -113.894819 274 28226ft 257kts
27-Feb-20 17:39 33.648057 -113.980621 273 28225ft 257kts
27-Feb-20 17:40 33.646680 -114.066580 273 28224ft 257kts
27-Feb-20 17:41 33.648976 -114.151967 279 28223ft 255kts
27-Feb-20 17:42 33.657221 -114.236492 280 28222ft 255kts
27-Feb-20 17:43 33.665574 -114.320740 280 28221ft 254kts
27-Feb-20 17:44 33.673883 -114.405177 279 28220ft 254kts
27-Feb-20 17:45 33.682089 -114.489235 280 28218ft 254kts
27-Feb-20 17:46 33.690242 -114.573371 280 28217ft 253kts
27-Feb-20 17:47 33.698338 -114.657395 279 28223ft 253kts
27-Feb-20 17:48 33.706408 -114.741767 279 28228ft 255kts
27-Feb-20 17:49 33.714491 -114.826590 279 28227ft 256kts
27-Feb-20 17:50 33.722471 -114.911511 279 28225ft 256kts
27-Feb-20 17:51 33.730442 -114.996544 279 28224ft 256kts
27-Feb-20 17:52 33.738322 -115.081462 279 28223ft 256kts
27-Feb-20 17:53 33.746153 -115.166463 279 28222ft 256kts
27-Feb-20 17:54 33.754711 -115.251192 280 28219ft 256kts
27-Feb-20 17:55 33.763302 -115.335903 280 28215ft 255kts
27-Feb-20 17:56 33.771886 -115.420595 280 28211ft 255kts
27-Feb-20 17:57 33.780642 -115.505010 280 28209ft 255kts
27-Feb-20 17:58 33.789347 -115.589683 280 28206ft 255kts
27-Feb-20 17:59 33.797581 -115.673779 279 27535ft 274kts
27-Feb-20 18:00 33.806455 -115.765334 280 26303ft 293kts
27-Feb-20 18:01 33.815838 -115.860304 281 25029ft 304kts
27-Feb-20 18:02 33.826168 -115.962386 281 23668ft 312kts
27-Feb-20 18:03 33.836659 -116.066928 282 22298ft 318kts
27-Feb-20 18:04 33.846120 -116.173704 280 21214ft 317kts
27-Feb-20 18:05 33.854327 -116.279757 280 20085ft 326kts
27-Feb-20 18:06 33.863325 -116.389600 281 18660ft 333kts
27-Feb-20 18:07 33.873958 -116.501303 281 17236ft 338kts
27-Feb-20 18:08 33.889998 -116.612509 284 16056ft 334kts
27-Feb-20 18:09 33.907037 -116.720018 284 15751ft 327kts
27-Feb-20 18:10 33.924153 -116.828013 283 14655ft 337kts
27-Feb-20 18:11 33.941192 -116.936242 282 12893ft 318kts
27-Feb-20 18:12 33.963319 -117.037991 287 11078ft 311kts
27-Feb-20 18:13 33.985012 -117.128901 286 9257ft 266kts
27-Feb-20 18:14 34.003984 -117.209600 286 9923ft 249kts
27-Feb-20 18:15 34.025497 -117.298552 287 10055ft 274kts
27-Feb-20 18:16 34.046032 -117.384465 286 10005ft 260kts
27-Feb-20 18:17 34.066400 -117.470015 287 10000ft 273kts
27-Feb-20 18:18 34.083017 -117.562027 281 9234ft 281kts
27-Feb-20 18:19 34.096606 -117.649629 281 7943ft 251kts
27-Feb-20 18:20 34.109088 -117.730556 281 7993ft 252kts
27-Feb-20 18:21 34.122226 -117.816324 280 7994ft 263kts
27-Feb-20 18:22 34.135547 -117.903768 280 7991ft 264kts
27-Feb-20 18:23 34.148797 -117.991117 280 7984ft 265kts
27-Feb-20 18:24 34.144847 -118.077654 265 6878ft 247kts
27-Feb-20 18:25 34.138669 -118.159075 265 5674ft 240kts
27-Feb-20 18:26 34.137535 -118.238831 280 4309ft 236kts
27-Feb-20 18:27 34.154538 -118.312138 291 2875ft 223kts
27-Feb-20 18:28 34.173123 -118.375857 287 1882ft 160kts
27-Feb-20 18:29 34.184056 -118.412451 320 1839ft 107kts
27-Feb-20 18:30 34.198096 -118.390791 90 1278ft 107kts
27-Feb-20 18:31 34.197781 -118.359808 92 782ft 30kts
27-Feb-20 18:32 34.198560 -118.357937 0 782ft 0kts
27-Feb-20 18:33 34.198874 -118.358985 272 782ft 11kts
27-Feb-20 18:34 34.199060 -118.363001 317 782ft 8kts
27-Feb-20 18:35 34.199738 -118.364518 4 782ft 2kts
27-Feb-20 18:36 34.200085 -118.363666 94 782ft 7kts
27-Feb-20 18:37 34.200317 -118.363454 191 782ft 0kts
27-Feb-20 18:38 34.200297 -118.363456 182 782ft 0kts
27-Feb-20 18:39 34.200297 -118.363456 182 782ft 0kts
27-Feb-20 18:40 34.200297 -118.363456 182 782ft 0kts

Navigation Log

Ident Type
Flight plan parsing failed, navigation log unavailable